Time;durP1;ratioP1;P1;durP2;ratioP2;P2;SDS_P1;SDS_P2;PMS_P1;PMS_P2;Temp;Humidity;BMP_temperature;BMP_pressure;BME280_temperature;BME280_humidity;BME280_pressure;Samples;Min_cycle;Max_cycle;Signal;HPM_P1;HPM_P2
2023/12/23 00:00:43;;;;;;;1.30;0.57;;;;;;;;;;5071482;28;20044;-63
2023/12/23 00:03:08;;;;;;;1.33;0.20;;;;;;;;;;5068668;28;20016;-64
2023/12/23 00:05:33;;;;;;;2.05;0.32;;;;;;;;;;5071080;28;20060;-65
2023/12/23 00:07:58;;;;;;;1.83;0.30;;;;;;;;;;5071452;28;20082;-64
2023/12/23 00:10:24;;;;;;;1.67;0.27;;;;;;;;;;5071506;28;20016;-64
2023/12/23 00:12:49;;;;;;;2.60;0.30;;;;;;;;;;5069193;28;20077;-64
2023/12/23 00:15:14;;;;;;;2.77;0.30;;;;;;;;;;5073857;28;20047;-64
2023/12/23 00:17:39;;;;;;;1.93;0.40;;;;;;;;;;5071354;28;20021;-65
2023/12/23 00:20:04;;;;;;;2.28;0.20;;;;;;;;;;5071322;28;20032;-65
2023/12/23 00:22:30;;;;;;;6.10;1.30;;;;;;;;;;5065335;28;20665;-65
2023/12/23 00:24:55;;;;;;;3.33;0.50;;;;;;;;;;5069252;28;20032;-64
2023/12/23 00:27:20;;;;;;;2.50;0.40;;;;;;;;;;5071363;28;20095;-65
2023/12/23 00:29:45;;;;;;;2.20;0.37;;;;;;;;;;5071162;28;20020;-64
2023/12/23 00:32:10;;;;;;;1.67;0.30;;;;;;;;;;5068589;28;20040;-65
2023/12/23 00:34:35;;;;;;;1.80;0.40;;;;;;;;;;5067239;28;20090;-63
2023/12/23 00:37:01;;;;;;;1.87;0.33;;;;;;;;;;5071727;28;20027;-63
2023/12/23 00:39:26;;;;;;;4.07;0.60;;;;;;;;;;5071983;28;20603;-65
2023/12/23 00:41:51;;;;;;;2.13;0.32;;;;;;;;;;5071093;28;20588;-66
2023/12/23 00:44:16;;;;;;;3.13;0.43;;;;;;;;;;5070985;28;20550;-65
2023/12/23 00:46:42;;;;;;;1.70;0.40;;;;;;;;;;5071982;28;20035;-67
2023/12/23 00:49:07;;;;;;;2.00;0.40;;;;;;;;;;5071376;28;20024;-65
2023/12/23 00:51:32;;;;;;;4.28;0.50;;;;;;;;;;5075149;28;20103;-64
2023/12/23 00:53:57;;;;;;;2.90;0.38;;;;;;;;;;5073597;28;20028;-64
2023/12/23 00:56:22;;;;;;;1.13;0.37;;;;;;;;;;5075225;28;20016;-65
2023/12/23 00:58:50;;;;;;;2.90;0.60;;;;;;;;;;5072448;28;20039;-65
2023/12/23 01:01:16;;;;;;;3.05;0.80;;;;;;;;;;5070980;28;20021;-64
2023/12/23 01:03:41;;;;;;;1.90;0.30;;;;;;;;;;5068071;28;20082;-63
2023/12/23 01:06:06;;;;;;;4.25;0.65;;;;;;;;;;5067213;28;20020;-63
2023/12/23 01:08:31;;;;;;;4.43;0.60;;;;;;;;;;5069700;28;20026;-63
2023/12/23 01:10:57;;;;;;;3.22;0.57;;;;;;;;;;5075373;28;20017;-66
2023/12/23 01:13:22;;;;;;;2.83;0.60;;;;;;;;;;5068048;28;20438;-65
2023/12/23 01:15:47;;;;;;;3.95;0.63;;;;;;;;;;5062703;28;20078;-64
2023/12/23 01:18:12;;;;;;;4.07;0.80;;;;;;;;;;5062830;28;20031;-63
2023/12/23 01:20:38;;;;;;;5.95;0.60;;;;;;;;;;5051131;28;20158;-64
2023/12/23 01:23:03;;;;;;;2.65;0.73;;;;;;;;;;5059156;28;20039;-65
2023/12/23 01:25:28;;;;;;;5.50;0.75;;;;;;;;;;5071724;28;20038;-65
2023/12/23 01:27:54;;;;;;;4.00;0.55;;;;;;;;;;5073222;28;20021;-65
2023/12/23 01:30:19;;;;;;;4.05;0.50;;;;;;;;;;5073706;28;20086;-65
2023/12/23 01:32:44;;;;;;;2.97;0.50;;;;;;;;;;5073391;28;20021;-64
2023/12/23 01:35:09;;;;;;;3.70;0.60;;;;;;;;;;5071913;28;20518;-65
2023/12/23 01:37:34;;;;;;;5.57;0.60;;;;;;;;;;5070174;28;20025;-64
2023/12/23 01:39:59;;;;;;;1.87;0.53;;;;;;;;;;5071282;28;20029;-63
2023/12/23 01:42:25;;;;;;;3.95;0.68;;;;;;;;;;5068151;28;20035;-63
2023/12/23 01:44:50;;;;;;;30.90;4.00;;;;;;;;;;5069948;28;20025;-64
2023/12/23 01:47:15;;;;;;;3.80;0.55;;;;;;;;;;5069253;28;20054;-64
2023/12/23 01:49:42;;;;;;;3.90;0.75;;;;;;;;;;5069936;28;20025;-64
2023/12/23 01:52:07;;;;;;;3.97;0.60;;;;;;;;;;5064654;28;20095;-64
2023/12/23 01:54:32;;;;;;;2.23;0.53;;;;;;;;;;5067754;28;20111;-63
2023/12/23 01:56:58;;;;;;;3.33;0.60;;;;;;;;;;5070096;28;20460;-63
2023/12/23 01:59:23;;;;;;;3.38;0.60;;;;;;;;;;5069785;28;20450;-64
2023/12/23 02:01:49;;;;;;;2.63;0.40;;;;;;;;;;5068371;28;20013;-65
2023/12/23 02:04:14;;;;;;;4.05;0.52;;;;;;;;;;5068234;28;20024;-64
2023/12/23 02:06:39;;;;;;;5.63;0.70;;;;;;;;;;5069586;28;20440;-62
2023/12/23 02:09:04;;;;;;;4.95;0.60;;;;;;;;;;5069778;28;21019;-65
2023/12/23 02:11:29;;;;;;;5.63;0.63;;;;;;;;;;5068028;28;20068;-64
2023/12/23 02:14:12;;;;;;;4.03;0.50;;;;;;;;;;5062952;28;20024;-63
2023/12/23 02:16:37;;;;;;;4.05;0.60;;;;;;;;;;5064927;28;20058;-64
2023/12/23 02:19:02;;;;;;;6.97;0.90;;;;;;;;;;5069553;28;20757;-65
2023/12/23 02:21:28;;;;;;;14.43;1.92;;;;;;;;;;5068645;28;20020;-65
2023/12/23 02:23:53;;;;;;;3.83;0.50;;;;;;;;;;5066578;28;20038;-65
2023/12/23 02:26:19;;;;;;;4.47;0.40;;;;;;;;;;5069442;28;20079;-64
2023/12/23 02:28:48;;;;;;;4.75;0.55;;;;;;;;;;5069560;28;20358;-64
2023/12/23 02:31:14;;;;;;;2.97;0.50;;;;;;;;;;5068238;28;20094;-64
2023/12/23 02:33:39;;;;;;;4.83;0.50;;;;;;;;;;5059334;28;20499;-64
2023/12/23 02:36:04;;;;;;;6.40;0.65;;;;;;;;;;5069070;28;20541;-65
2023/12/23 02:38:29;;;;;;;3.57;0.50;;;;;;;;;;5064445;28;20877;-64
2023/12/23 02:40:54;;;;;;;5.03;0.70;;;;;;;;;;5059955;28;21049;-65
2023/12/23 02:43:19;;;;;;;7.40;0.60;;;;;;;;;;5067198;28;20017;-65
2023/12/23 02:45:45;;;;;;;11.37;0.90;;;;;;;;;;5068777;28;20029;-64
2023/12/23 02:48:10;;;;;;;3.63;0.63;;;;;;;;;;5069090;28;20107;-65
2023/12/23 02:50:35;;;;;;;4.07;0.70;;;;;;;;;;5071398;28;20021;-65
2023/12/23 02:53:00;;;;;;;7.22;0.70;;;;;;;;;;5072629;28;20077;-65
2023/12/23 02:55:25;;;;;;;3.80;0.50;;;;;;;;;;5063654;28;20024;-65
2023/12/23 02:57:50;;;;;;;9.52;0.82;;;;;;;;;;5060540;28;20031;-64
2023/12/23 03:00:16;;;;;;;5.77;0.90;;;;;;;;;;5064237;28;20028;-64
2023/12/23 03:02:41;;;;;;;5.33;1.10;;;;;;;;;;5066683;28;20032;-64
2023/12/23 03:05:06;;;;;;;3.22;0.50;;;;;;;;;;5072726;28;20070;-65
2023/12/23 03:07:31;;;;;;;2.88;0.40;;;;;;;;;;5072501;28;20468;-65
2023/12/23 03:09:57;;;;;;;4.85;0.52;;;;;;;;;;5070123;28;20113;-64
2023/12/23 03:12:22;;;;;;;3.72;0.50;;;;;;;;;;5071948;28;20017;-62
2023/12/23 03:14:47;;;;;;;3.63;0.60;;;;;;;;;;5071933;28;20124;-63
2023/12/23 03:17:12;;;;;;;6.95;0.85;;;;;;;;;;5070715;28;20104;-65
2023/12/23 03:19:40;;;;;;;3.00;0.60;;;;;;;;;;5071379;28;20013;-65
2023/12/23 03:22:05;;;;;;;1.67;0.20;;;;;;;;;;5068478;28;20088;-65
2023/12/23 03:24:30;;;;;;;6.63;0.80;;;;;;;;;;5070047;28;20400;-63
2023/12/23 03:26:55;;;;;;;10.70;0.63;;;;;;;;;;5072702;28;20474;-63
2023/12/23 03:29:20;;;;;;;2.65;0.40;;;;;;;;;;5072521;28;20353;-63
2023/12/23 03:31:46;;;;;;;6.82;0.73;;;;;;;;;;5072691;28;20043;-64
2023/12/23 03:34:11;;;;;;;8.70;1.20;;;;;;;;;;5072571;28;20028;-64
2023/12/23 03:36:36;;;;;;;8.63;1.43;;;;;;;;;;5072828;28;20016;-64
2023/12/23 03:39:01;;;;;;;26.83;3.07;;;;;;;;;;5071708;28;20024;-63
2023/12/23 03:41:26;;;;;;;13.97;1.60;;;;;;;;;;5072183;28;20069;-64
2023/12/23 03:43:51;;;;;;;4.35;0.45;;;;;;;;;;5072110;28;20008;-63
2023/12/23 03:46:17;;;;;;;12.95;2.70;;;;;;;;;;5069777;28;20078;-64
2023/12/23 03:48:42;;;;;;;5.53;0.55;;;;;;;;;;5072619;28;20051;-65
2023/12/23 03:51:07;;;;;;;8.38;1.15;;;;;;;;;;5072582;28;20051;-63
2023/12/23 03:53:33;;;;;;;7.63;0.80;;;;;;;;;;5071867;28;20105;-62
2023/12/23 03:55:58;;;;;;;5.10;0.80;;;;;;;;;;5071740;28;20020;-63
2023/12/23 03:58:23;;;;;;;12.45;0.73;;;;;;;;;;5070879;28;20095;-63
2023/12/23 04:00:48;;;;;;;8.15;0.70;;;;;;;;;;5071581;28;20019;-64
2023/12/23 04:03:13;;;;;;;6.97;0.57;;;;;;;;;;5065955;28;20501;-64
2023/12/23 04:05:38;;;;;;;8.17;0.73;;;;;;;;;;5069971;28;20074;-65
2023/12/23 04:08:04;;;;;;;5.80;0.60;;;;;;;;;;5070229;28;20056;-65
2023/12/23 04:10:29;;;;;;;8.35;0.90;;;;;;;;;;5070652;28;20017;-65
2023/12/23 04:12:55;;;;;;;7.35;0.73;;;;;;;;;;5066475;28;20012;-66
2023/12/23 04:15:20;;;;;;;8.93;1.10;;;;;;;;;;5066108;28;20111;-66
2023/12/23 04:17:45;;;;;;;6.22;0.73;;;;;;;;;;5051460;28;20384;-63
2023/12/23 04:20:10;;;;;;;5.90;0.73;;;;;;;;;;5051688;28;20040;-63
2023/12/23 04:22:36;;;;;;;10.70;1.00;;;;;;;;;;5064698;28;20020;-66
2023/12/23 04:25:01;;;;;;;5.63;0.75;;;;;;;;;;5063590;28;20481;-65
2023/12/23 04:27:27;;;;;;;6.47;0.75;;;;;;;;;;5071211;28;20020;-65
2023/12/23 04:29:52;;;;;;;6.85;0.70;;;;;;;;;;5071142;28;20019;-67
2023/12/23 04:32:17;;;;;;;4.82;0.60;;;;;;;;;;5069000;28;20082;-66
2023/12/23 04:34:42;;;;;;;3.50;0.60;;;;;;;;;;5070863;28;20425;-66
2023/12/23 04:37:07;;;;;;;5.10;0.50;;;;;;;;;;5066353;28;20122;-65
2023/12/23 04:39:32;;;;;;;5.13;0.60;;;;;;;;;;5070454;28;20095;-65
2023/12/23 04:41:57;;;;;;;4.90;0.60;;;;;;;;;;5068252;28;20051;-64
2023/12/23 04:44:23;;;;;;;7.60;0.80;;;;;;;;;;5065329;28;20036;-64
2023/12/23 04:46:48;;;;;;;6.23;0.50;;;;;;;;;;5070182;28;20103;-63
2023/12/23 04:49:13;;;;;;;5.55;0.60;;;;;;;;;;5069927;28;20023;-65
2023/12/23 04:51:38;;;;;;;6.03;1.00;;;;;;;;;;5065053;28;20028;-65
2023/12/23 04:54:03;;;;;;;10.33;0.87;;;;;;;;;;5070735;28;20020;-63
2023/12/23 04:56:29;;;;;;;7.82;0.77;;;;;;;;;;5068716;28;20090;-64
2023/12/23 04:58:56;;;;;;;6.33;1.00;;;;;;;;;;5070398;28;20036;-63
2023/12/23 05:01:21;;;;;;;;;;;;;;;;;;5065094;28;20052;-64
2023/12/23 05:03:46;;;;;;;5.20;0.47;;;;;;;;;;5061980;28;19919;-64
2023/12/23 05:06:11;;;;;;;6.27;0.67;;;;;;;;;;5070654;28;20043;-64
2023/12/23 05:08:37;;;;;;;7.77;0.70;;;;;;;;;;5070195;28;20345;-64
2023/12/23 05:11:02;;;;;;;6.50;0.88;;;;;;;;;;5070160;28;20017;-64
2023/12/23 05:13:27;;;;;;;5.25;0.95;;;;;;;;;;5068331;28;20020;-63
2023/12/23 05:15:52;;;;;;;4.75;0.57;;;;;;;;;;5070439;28;20071;-63
2023/12/23 05:18:17;;;;;;;4.72;0.95;;;;;;;;;;5069847;28;20032;-65
2023/12/23 05:20:43;;;;;;;4.78;0.63;;;;;;;;;;5070234;28;20016;-65
2023/12/23 05:23:08;;;;;;;6.70;1.05;;;;;;;;;;5059200;28;20082;-63
2023/12/23 05:25:33;;;;;;;5.33;0.90;;;;;;;;;;5070093;28;20052;-65
2023/12/23 05:27:58;;;;;;;5.90;0.82;;;;;;;;;;5070481;28;20027;-66
2023/12/23 05:30:23;;;;;;;5.90;0.60;;;;;;;;;;5070022;28;20016;-65
2023/12/23 05:32:48;;;;;;;3.47;0.60;;;;;;;;;;5068442;28;20101;-66
2023/12/23 05:35:14;;;;;;;6.47;0.90;;;;;;;;;;5070136;28;20016;-66
2023/12/23 05:37:39;;;;;;;5.47;0.73;;;;;;;;;;5070232;28;20028;-65
2023/12/23 05:40:05;;;;;;;7.95;1.00;;;;;;;;;;5070201;28;20107;-65
2023/12/23 05:42:30;;;;;;;6.70;0.80;;;;;;;;;;5065564;28;20391;-65
2023/12/23 05:44:55;;;;;;;7.22;0.95;;;;;;;;;;5065544;28;20036;-64
2023/12/23 05:47:20;;;;;;;7.82;0.85;;;;;;;;;;5070475;28;20102;-64
2023/12/23 05:49:45;;;;;;;10.17;0.87;;;;;;;;;;5063786;28;20293;-64
2023/12/23 05:52:11;;;;;;;6.90;0.90;;;;;;;;;;5066029;28;20373;-65
2023/12/23 05:54:36;;;;;;;7.78;0.90;;;;;;;;;;5068719;28;20029;-64
2023/12/23 05:57:01;;;;;;;6.93;0.80;;;;;;;;;;5070256;28;20035;-65
2023/12/23 05:59:26;;;;;;;6.67;0.90;;;;;;;;;;5070107;28;20042;-64
2023/12/23 06:01:52;;;;;;;8.43;0.90;;;;;;;;;;5069053;28;20544;-64
2023/12/23 06:04:17;;;;;;;6.70;0.70;;;;;;;;;;5057953;28;20075;-64
2023/12/23 06:06:42;;;;;;;5.97;0.90;;;;;;;;;;5071369;28;20028;-64
2023/12/23 06:09:08;;;;;;;5.70;0.70;;;;;;;;;;5070823;28;20748;-64
2023/12/23 06:11:33;;;;;;;6.18;0.73;;;;;;;;;;5064296;28;20020;-64
2023/12/23 06:13:58;;;;;;;6.43;0.90;;;;;;;;;;5067828;28;20579;-64
2023/12/23 06:16:24;;;;;;;6.18;0.70;;;;;;;;;;5062106;28;20201;-64
2023/12/23 06:18:49;;;;;;;4.97;0.70;;;;;;;;;;5053194;28;20043;-64
2023/12/23 06:21:14;;;;;;;4.20;0.60;;;;;;;;;;5062334;28;20365;-64
2023/12/23 06:23:39;;;;;;;5.95;0.80;;;;;;;;;;5067980;28;20024;-64
2023/12/23 06:26:04;;;;;;;4.18;0.60;;;;;;;;;;5073179;28;20107;-64
2023/12/23 06:28:29;;;;;;;5.20;0.68;;;;;;;;;;5073604;28;20036;-64
2023/12/23 06:30:54;;;;;;;9.20;0.93;;;;;;;;;;5057184;28;20021;-64
2023/12/23 06:33:20;;;;;;;9.10;0.70;;;;;;;;;;5056561;28;20049;-64
2023/12/23 06:35:45;;;;;;;3.93;0.60;;;;;;;;;;5073458;28;20086;-63
2023/12/23 06:38:10;;;;;;;6.07;0.70;;;;;;;;;;5067878;28;20020;-63
2023/12/23 06:40:35;;;;;;;6.37;0.87;;;;;;;;;;5065214;28;20024;-64
2023/12/23 06:43:00;;;;;;;8.18;0.93;;;;;;;;;;5057224;28;20032;-65
2023/12/23 06:45:26;;;;;;;5.70;0.90;;;;;;;;;;5064312;28;20028;-64
2023/12/23 06:47:51;;;;;;;5.23;0.90;;;;;;;;;;5060026;28;20450;-64
2023/12/23 06:50:16;;;;;;;8.20;0.80;;;;;;;;;;5066359;28;20021;-65
2023/12/23 06:52:41;;;;;;;5.20;0.75;;;;;;;;;;5060567;28;20019;-64
2023/12/23 06:55:06;;;;;;;5.50;0.70;;;;;;;;;;5076169;28;20476;-64
2023/12/23 06:57:32;;;;;;;6.70;1.23;;;;;;;;;;5066581;28;20457;-64
2023/12/23 06:59:58;;;;;;;4.50;0.70;;;;;;;;;;5072572;28;20008;-64
2023/12/23 07:02:23;;;;;;;4.82;1.10;;;;;;;;;;5061427;28;20042;-64
2023/12/23 07:04:50;;;;;;;7.50;0.90;;;;;;;;;;5060862;28;20025;-65
2023/12/23 07:07:15;;;;;;;6.53;0.93;;;;;;;;;;5068846;28;20031;-65
2023/12/23 07:09:40;;;;;;;5.60;0.90;;;;;;;;;;5070039;28;20400;-65
2023/12/23 07:12:05;;;;;;;4.60;0.80;;;;;;;;;;5065824;28;20063;-64
2023/12/23 07:14:30;;;;;;;6.43;0.82;;;;;;;;;;5060304;28;20028;-64
2023/12/23 07:16:55;;;;;;;5.78;1.15;;;;;;;;;;5065266;28;20624;-63
2023/12/23 07:19:21;;;;;;;6.88;1.17;;;;;;;;;;5059606;28;20032;-64
2023/12/23 07:21:48;;;;;;;4.43;0.80;;;;;;;;;;5056057;28;20024;-64
2023/12/23 07:24:13;;;;;;;4.20;0.85;;;;;;;;;;5067372;28;20055;-63
2023/12/23 07:26:38;;;;;;;4.97;0.90;;;;;;;;;;5061652;28;20473;-65
2023/12/23 07:29:03;;;;;;;5.55;1.10;;;;;;;;;;5069248;28;20575;-64
2023/12/23 07:31:32;;;;;;;2.57;0.70;;;;;;;;;;5071118;28;20031;-64
2023/12/23 07:33:57;;;;;;;4.47;0.93;;;;;;;;;;5062086;28;20586;-64
2023/12/23 07:36:22;;;;;;;6.10;1.10;;;;;;;;;;5072350;28;20092;-65
2023/12/23 07:38:47;;;;;;;9.18;1.55;;;;;;;;;;5067859;28;20712;-64
2023/12/23 07:41:12;;;;;;;6.60;1.30;;;;;;;;;;5071072;28;20025;-62
2023/12/23 07:43:38;;;;;;;4.55;1.10;;;;;;;;;;5064273;28;20388;-64
2023/12/23 07:46:03;;;;;;;2.60;0.80;;;;;;;;;;5061027;28;20123;-62
2023/12/23 07:48:28;;;;;;;4.73;1.03;;;;;;;;;;5072921;28;20021;-64
2023/12/23 07:50:53;;;;;;;5.07;1.20;;;;;;;;;;5068305;28;20625;-62
2023/12/23 07:53:18;;;;;;;3.80;1.07;;;;;;;;;;5060314;28;20104;-64
2023/12/23 07:55:43;;;;;;;6.93;1.00;;;;;;;;;;5064397;28;20032;-63
2023/12/23 07:58:09;;;;;;;6.13;1.00;;;;;;;;;;5067774;28;20013;-64
2023/12/23 08:00:34;;;;;;;4.38;1.17;;;;;;;;;;5071501;28;20063;-64
2023/12/23 08:02:59;;;;;;;5.20;1.10;;;;;;;;;;5055457;28;20017;-64
2023/12/23 08:05:24;;;;;;;3.83;0.80;;;;;;;;;;5057554;28;20116;-65
2023/12/23 08:07:49;;;;;;;4.55;0.93;;;;;;;;;;5068118;28;20025;-65
2023/12/23 08:10:16;;;;;;;3.95;1.00;;;;;;;;;;5064334;28;20024;-64
2023/12/23 08:12:41;;;;;;;5.35;1.10;;;;;;;;;;5051366;28;20092;-64
2023/12/23 08:15:07;;;;;;;6.30;1.25;;;;;;;;;;5067250;28;20540;-64
2023/12/23 08:17:32;;;;;;;4.53;1.00;;;;;;;;;;5067142;28;20024;-63
2023/12/23 08:19:57;;;;;;;5.35;1.08;;;;;;;;;;5071665;28;20028;-64
2023/12/23 08:22:22;;;;;;;5.80;1.00;;;;;;;;;;5063969;28;20024;-64
2023/12/23 08:24:48;;;;;;;5.53;1.10;;;;;;;;;;5060941;28;20458;-63
2023/12/23 08:27:13;;;;;;;5.77;1.40;;;;;;;;;;5063922;28;20431;-64
2023/12/23 08:29:39;;;;;;;5.65;0.95;;;;;;;;;;5060320;28;20103;-64
2023/12/23 08:32:04;;;;;;;4.72;0.85;;;;;;;;;;5054654;28;20017;-63
2023/12/23 08:34:29;;;;;;;5.68;1.33;;;;;;;;;;5062519;28;20012;-63
2023/12/23 08:36:55;;;;;;;3.73;0.90;;;;;;;;;;5059662;28;20021;-64
2023/12/23 08:39:21;;;;;;;2.27;0.70;;;;;;;;;;5062430;28;20438;-63
2023/12/23 08:41:47;;;;;;;5.72;0.95;;;;;;;;;;5057328;28;20480;-63
2023/12/23 08:44:12;;;;;;;4.93;0.90;;;;;;;;;;5062239;28;20063;-64
2023/12/23 08:46:37;;;;;;;3.78;1.02;;;;;;;;;;5056042;28;20024;-64
2023/12/23 08:49:02;;;;;;;3.15;0.82;;;;;;;;;;5052869;28;20020;-64
2023/12/23 08:51:31;;;;;;;3.28;0.80;;;;;;;;;;5053134;28;20115;-64
2023/12/23 08:53:56;;;;;;;5.53;1.30;;;;;;;;;;5054102;28;20413;-63
2023/12/23 08:56:21;;;;;;;4.35;1.10;;;;;;;;;;5051287;28;20021;-65
2023/12/23 08:58:47;;;;;;;6.22;1.17;;;;;;;;;;5050572;28;20021;-64
2023/12/23 09:01:12;;;;;;;4.20;1.10;;;;;;;;;;5057886;28;20063;-65
2023/12/23 09:03:37;;;;;;;4.17;1.30;;;;;;;;;;5054476;28;20122;-65
2023/12/23 09:06:03;;;;;;;5.80;1.15;;;;;;;;;;5057707;28;20063;-66
2023/12/23 09:08:28;;;;;;;3.65;0.85;;;;;;;;;;5057742;28;20032;-65
2023/12/23 09:10:53;;;;;;;3.72;1.15;;;;;;;;;;5055217;28;20028;-66
2023/12/23 09:13:18;;;;;;;5.10;1.30;;;;;;;;;;5066948;28;20020;-65
2023/12/23 09:15:43;;;;;;;3.38;1.02;;;;;;;;;;5063116;28;20017;-64
2023/12/23 09:18:09;;;;;;;5.30;1.60;;;;;;;;;;5068087;28;20051;-64
2023/12/23 09:20:34;;;;;;;5.17;1.50;;;;;;;;;;5068080;28;20028;-64
2023/12/23 09:22:59;;;;;;;4.18;1.13;;;;;;;;;;5068516;28;20020;-63
2023/12/23 09:25:24;;;;;;;5.32;1.35;;;;;;;;;;5061326;28;20392;-64
2023/12/23 09:27:49;;;;;;;5.43;1.30;;;;;;;;;;5063935;28;20093;-63
2023/12/23 09:30:14;;;;;;;6.27;1.60;;;;;;;;;;5068567;28;20016;-63
2023/12/23 09:32:40;;;;;;;8.40;2.10;;;;;;;;;;5068166;28;20395;-64
2023/12/23 09:35:05;;;;;;;6.10;1.60;;;;;;;;;;5065014;28;20436;-65
2023/12/23 09:37:30;;;;;;;4.43;1.70;;;;;;;;;;5062551;28;20464;-64
2023/12/23 09:39:58;;;;;;;4.43;1.50;;;;;;;;;;5066822;28;20020;-64
2023/12/23 09:42:24;;;;;;;4.95;1.60;;;;;;;;;;5067627;28;20008;-64
2023/12/23 09:44:49;;;;;;;10.20;4.67;;;;;;;;;;5057176;28;20031;-64
2023/12/23 09:47:14;;;;;;;7.27;2.30;;;;;;;;;;5062177;28;20020;-64
2023/12/23 09:49:39;;;;;;;6.00;2.00;;;;;;;;;;5064326;28;20020;-64
2023/12/23 09:52:04;;;;;;;8.67;2.70;;;;;;;;;;5066753;28;20410;-64
2023/12/23 09:54:33;;;;;;;7.80;2.17;;;;;;;;;;5069700;28;20502;-64
2023/12/23 09:56:59;;;;;;;7.00;2.67;;;;;;;;;;5071244;28;20537;-64
2023/12/23 09:59:24;;;;;;;10.47;3.47;;;;;;;;;;5071679;28;20054;-63
2023/12/23 10:01:49;;;;;;;11.05;3.40;;;;;;;;;;5074000;28;20492;-65
2023/12/23 10:04:14;;;;;;;8.07;2.80;;;;;;;;;;5073775;28;20021;-64
2023/12/23 10:06:40;;;;;;;9.17;3.40;;;;;;;;;;5072666;28;20085;-64
2023/12/23 10:09:05;;;;;;;7.85;2.80;;;;;;;;;;5072146;28;20627;-65
2023/12/23 10:11:30;;;;;;;8.40;2.90;;;;;;;;;;5071691;28;20472;-65
2023/12/23 10:13:56;;;;;;;8.13;3.30;;;;;;;;;;5071350;28;20029;-65
2023/12/23 10:16:21;;;;;;;7.15;2.95;;;;;;;;;;5067583;28;20466;-65
2023/12/23 10:18:46;;;;;;;8.03;2.97;;;;;;;;;;5063077;28;20014;-65
2023/12/23 10:21:11;;;;;;;8.95;3.58;;;;;;;;;;5072556;28;20169;-66
2023/12/23 10:23:36;;;;;;;7.37;2.90;;;;;;;;;;5072817;28;20099;-66
2023/12/23 10:26:02;;;;;;;8.17;3.17;;;;;;;;;;5070716;28;20403;-65
2023/12/23 10:28:27;;;;;;;7.13;2.83;;;;;;;;;;5066826;28;20020;-64
2023/12/23 10:30:56;;;;;;;9.60;2.97;;;;;;;;;;5072551;28;20388;-65
2023/12/23 10:33:21;;;;;;;8.13;2.88;;;;;;;;;;5072466;28;20040;-65
2023/12/23 10:35:47;;;;;;;9.07;3.40;;;;;;;;;;5070737;28;20017;-66
2023/12/23 10:38:22;;;;;;;10.02;3.30;;;;;;;;;;5068088;28;20040;-65
2023/12/23 10:41:25;;;;;;;7.55;2.63;;;;;;;;;;5072811;28;20023;-65
2023/12/23 10:43:52;;;;;;;7.72;3.00;;;;;;;;;;5048298;28;20048;-65
2023/12/23 10:46:18;;;;;;;;;;;;;;;;;;5042884;28;20086;-63
2023/12/23 10:48:43;;;;;;;6.22;2.60;;;;;;;;;;5053696;28;20006;-64
2023/12/23 10:51:09;;;;;;;8.27;2.97;;;;;;;;;;5065831;28;20028;-64
2023/12/23 10:53:35;;;;;;;8.68;3.05;;;;;;;;;;5067464;28;20487;-64
2023/12/23 10:56:00;;;;;;;7.43;3.03;;;;;;;;;;5070325;28;20024;-65
2023/12/23 10:58:26;;;;;;;7.47;2.57;;;;;;;;;;5054565;28;20052;-65
2023/12/23 11:00:52;;;;;;;7.53;2.63;;;;;;;;;;5055687;28;20031;-65
2023/12/23 11:03:18;;;;;;;7.22;2.90;;;;;;;;;;5061956;28;20654;-65
2023/12/23 11:05:44;;;;;;;8.05;2.80;;;;;;;;;;5060248;28;20117;-64
2023/12/23 11:08:12;;;;;;;9.20;3.17;;;;;;;;;;5061461;28;20487;-64
2023/12/23 11:10:38;;;;;;;7.95;2.88;;;;;;;;;;5061718;28;20039;-65
2023/12/23 11:13:04;;;;;;;7.53;2.97;;;;;;;;;;5066900;28;20405;-64
2023/12/23 11:15:30;;;;;;;7.63;2.95;;;;;;;;;;5060714;28;20114;-63
2023/12/23 11:17:57;;;;;;;8.57;3.67;;;;;;;;;;5055739;28;20035;-64
2023/12/23 11:20:31;;;;;;;6.30;2.85;;;;;;;;;;5060102;28;20127;-65
2023/12/23 11:22:56;;;;;;;9.93;3.60;;;;;;;;;;5065898;28;20391;-63
2023/12/23 11:25:41;;;;;;;7.50;3.03;;;;;;;;;;5059692;28;20028;-64
2023/12/23 11:28:09;;;;;;;7.18;2.90;;;;;;;;;;5055978;28;20047;-62
2023/12/23 11:30:45;;;;;;;8.13;3.30;;;;;;;;;;5055226;28;20013;-63
2023/12/23 11:33:10;;;;;;;8.65;2.85;;;;;;;;;;5062854;28;20035;-63
2023/12/23 11:35:37;;;;;;;6.60;2.83;;;;;;;;;;5067306;28;20032;-61
2023/12/23 11:38:02;;;;;;;8.57;3.47;;;;;;;;;;5065706;28;20480;-63
2023/12/23 11:40:30;;;;;;;6.20;2.50;;;;;;;;;;5066541;28;20021;-63
2023/12/23 11:42:55;;;;;;;9.25;3.20;;;;;;;;;;5068944;28;21112;-63
2023/12/23 11:45:20;;;;;;;6.88;2.80;;;;;;;;;;5059675;28;20108;-63
2023/12/23 11:47:46;;;;;;;7.25;3.20;;;;;;;;;;5060951;28;20031;-64
2023/12/23 11:50:14;;;;;;;6.57;2.65;;;;;;;;;;5068953;28;20119;-63
2023/12/23 11:52:40;;;;;;;5.82;2.33;;;;;;;;;;5058207;28;20156;-63
2023/12/23 11:55:05;;;;;;;7.15;2.60;;;;;;;;;;5067767;28;20622;-63
2023/12/23 11:57:32;;;;;;;4.00;0.95;;;;;;;;;;5061998;28;20475;-63
2023/12/23 11:59:58;;;;;;;2.13;0.65;;;;;;;;;;5063163;28;20082;-63
2023/12/23 12:02:24;;;;;;;3.15;0.90;;;;;;;;;;5066065;28;20013;-64
2023/12/23 12:04:49;;;;;;;2.22;0.73;;;;;;;;;;5065037;28;20029;-63
2023/12/23 12:07:15;;;;;;;2.70;0.90;;;;;;;;;;5065074;28;20024;-61
2023/12/23 12:09:40;;;;;;;3.00;0.70;;;;;;;;;;5061891;28;20063;-63
2023/12/23 12:12:05;;;;;;;3.42;0.80;;;;;;;;;;5064998;28;20581;-63
2023/12/23 12:14:31;;;;;;;3.03;0.85;;;;;;;;;;5065725;28;20083;-63
2023/12/23 12:16:56;;;;;;;2.20;0.70;;;;;;;;;;5066532;28;20047;-62
2023/12/23 12:19:21;;;;;;;1.90;0.53;;;;;;;;;;5055801;28;20400;-63
2023/12/23 12:21:46;;;;;;;8.13;0.60;;;;;;;;;;5063350;28;20131;-63
2023/12/23 12:24:11;;;;;;;2.23;0.70;;;;;;;;;;5053310;28;20120;-63
2023/12/23 12:26:36;;;;;;;0.83;0.37;;;;;;;;;;5066413;28;20025;-63
2023/12/23 12:29:03;;;;;;;1.63;0.57;;;;;;;;;;5063221;28;20392;-63
2023/12/23 12:31:28;;;;;;;1.45;0.43;;;;;;;;;;5064207;28;21041;-62
2023/12/23 12:33:54;;;;;;;2.15;0.60;;;;;;;;;;5059954;28;20044;-63
2023/12/23 12:36:20;;;;;;;2.03;0.50;;;;;;;;;;5058618;28;20032;-63
2023/12/23 12:38:45;;;;;;;1.05;0.40;;;;;;;;;;5063237;28;20044;-62
2023/12/23 12:41:11;;;;;;;2.33;0.67;;;;;;;;;;5058329;28;20024;-63
2023/12/23 12:43:42;;;;;;;2.58;0.85;;;;;;;;;;5063332;28;20486;-63
2023/12/23 12:46:07;;;;;;;2.45;0.60;;;;;;;;;;5057193;28;20029;-63
2023/12/23 12:48:33;;;;;;;1.58;0.57;;;;;;;;;;5059008;28;20054;-63
2023/12/23 12:50:58;;;;;;;2.50;0.60;;;;;;;;;;5074643;28;20021;-64
2023/12/23 12:53:23;;;;;;;2.50;0.53;;;;;;;;;;5069279;28;20032;-63
2023/12/23 12:55:48;;;;;;;2.83;0.70;;;;;;;;;;5065907;28;20036;-64
2023/12/23 12:58:13;;;;;;;2.03;0.40;;;;;;;;;;5064317;28;20564;-64
2023/12/23 13:00:39;;;;;;;1.10;0.40;;;;;;;;;;5060390;28;20036;-62
2023/12/23 13:03:04;;;;;;;2.20;0.70;;;;;;;;;;5058981;28;20025;-62
2023/12/23 13:05:29;;;;;;;1.38;0.50;;;;;;;;;;5066267;28;20028;-63
2023/12/23 13:07:54;;;;;;;2.22;0.60;;;;;;;;;;5066104;28;20115;-64
2023/12/23 13:10:20;;;;;;;1.90;0.67;;;;;;;;;;5070393;28;20024;-65
2023/12/23 13:12:45;;;;;;;3.27;0.70;;;;;;;;;;5057232;28;20729;-65
2023/12/23 13:15:10;;;;;;;3.97;0.60;;;;;;;;;;5064750;28;20515;-64
2023/12/23 13:17:35;;;;;;;3.38;0.85;;;;;;;;;;5067980;28;20027;-65
2023/12/23 13:20:00;;;;;;;3.30;0.85;;;;;;;;;;5068363;28;20043;-64
2023/12/23 13:22:26;;;;;;;2.35;0.68;;;;;;;;;;5057503;28;20489;-65
2023/12/23 13:24:51;;;;;;;2.72;0.77;;;;;;;;;;5053398;28;20111;-63
2023/12/23 13:27:18;;;;;;;1.75;0.60;;;;;;;;;;5059441;28;20031;-62
2023/12/23 13:29:43;;;;;;;2.85;0.60;;;;;;;;;;5060463;28;20020;-62
2023/12/23 13:32:08;;;;;;;2.25;0.73;;;;;;;;;;5053533;28;20362;-63
2023/12/23 13:34:33;;;;;;;4.20;0.93;;;;;;;;;;5057903;28;20024;-63
2023/12/23 13:36:58;;;;;;;2.13;0.60;;;;;;;;;;5061528;28;20028;-63
2023/12/23 13:39:24;;;;;;;2.37;0.70;;;;;;;;;;5062792;28;20025;-61
2023/12/23 13:41:49;;;;;;;1.80;0.60;;;;;;;;;;5061119;28;20111;-62
2023/12/23 13:44:14;;;;;;;2.65;0.70;;;;;;;;;;5053448;28;20032;-62
2023/12/23 13:46:39;;;;;;;2.20;0.63;;;;;;;;;;5055122;28;20123;-62
2023/12/23 13:49:05;;;;;;;2.80;0.83;;;;;;;;;;5053514;28;20028;-62
2023/12/23 13:51:30;;;;;;;1.88;0.55;;;;;;;;;;5053404;28;20029;-62
2023/12/23 13:53:55;;;;;;;3.10;0.90;;;;;;;;;;5058238;28;20112;-63
2023/12/23 13:56:20;;;;;;;3.33;0.80;;;;;;;;;;5056007;28;20151;-61
2023/12/23 13:58:45;;;;;;;3.07;0.87;;;;;;;;;;5067273;28;20141;-61
2023/12/23 14:01:11;;;;;;;2.67;0.80;;;;;;;;;;5067085;28;20024;-62
2023/12/23 14:03:36;;;;;;;2.33;0.82;;;;;;;;;;5055077;28;20176;-63
2023/12/23 14:06:01;;;;;;;3.97;0.77;;;;;;;;;;5054540;28;20032;-63
2023/12/23 14:08:26;;;;;;;4.80;1.10;;;;;;;;;;5056103;28;20333;-66
2023/12/23 14:10:51;;;;;;;3.70;0.90;;;;;;;;;;5058537;28;20044;-65
2023/12/23 14:13:16;;;;;;;2.17;0.60;;;;;;;;;;5059888;28;20039;-61
2023/12/23 14:15:42;;;;;;;3.53;0.73;;;;;;;;;;5068418;28;20036;-63
2023/12/23 14:18:08;;;;;;;3.87;0.90;;;;;;;;;;5055052;28;20088;-62
2023/12/23 14:20:34;;;;;;;3.55;0.90;;;;;;;;;;5069080;28;21007;-64
2023/12/23 14:22:59;;;;;;;2.70;0.70;;;;;;;;;;5054936;28;20025;-64
2023/12/23 14:25:24;;;;;;;6.07;0.90;;;;;;;;;;5062696;28;20021;-63
2023/12/23 14:27:49;;;;;;;4.17;0.80;;;;;;;;;;5059835;28;20020;-64
2023/12/23 14:30:15;;;;;;;2.70;0.73;;;;;;;;;;5061516;28;20042;-63
2023/12/23 14:32:40;;;;;;;2.50;0.80;;;;;;;;;;5064079;28;20556;-64